Terminal Aerodrome Forecast
Issued by NWS

Home | Current Version | Previous Version | Text Only | Print | Product List | Glossary On
Versions: 1 2 3 4 5 6 7 8 9 10 11 12 13 14 15 16
479
FTUS45 KABQ 281143
TAFSAF
TAF
KSAF 281143Z 2812/2912 36011G18KT P6SM BKN090
     FM281500 34010KT P6SM VCSH BKN060
      TEMPO 2815/2819 -SHRA SCT030 BKN045
     FM290000 35011KT P6SM VCSH BKN050
     FM290200 02011KT P6SM BKN060
     FM290800 13015KT 6SM -SN BKN025=

USA.gov is the U.S. government's official web portal to all federal, state and local government web resources and services.